createdAt,value
2019-03-24T00:01:46.829Z,39.00
2019-03-24T00:04:18.111Z,38.40
2019-03-24T00:06:46.775Z,40.60
2019-03-24T00:09:15.452Z,35.23
2019-03-24T00:11:44.170Z,39.67
2019-03-24T00:14:12.840Z,35.60
2019-03-24T00:16:41.561Z,35.33
2019-03-24T00:19:10.234Z,35.65
2019-03-24T00:21:40.142Z,31.40
2019-03-24T00:24:08.905Z,30.30
2019-03-24T00:26:37.563Z,33.38
2019-03-24T00:29:06.212Z,36.55
2019-03-24T00:31:34.950Z,30.57
2019-03-24T00:34:03.691Z,31.37
2019-03-24T00:36:33.045Z,30.02
2019-03-24T00:39:03.102Z,29.90
2019-03-24T00:41:31.768Z,29.67
2019-03-24T00:44:00.430Z,31.00
2019-03-24T00:46:30.373Z,33.35
2019-03-24T00:48:59.033Z,29.48
2019-03-24T00:51:27.812Z,35.45
2019-03-24T00:53:56.477Z,35.50
2019-03-24T00:56:25.131Z,31.97
2019-03-24T00:58:53.785Z,36.75
2019-03-24T01:01:22.515Z,30.00
2019-03-24T01:03:51.173Z,32.70
2019-03-24T01:06:19.903Z,48.60
2019-03-24T01:08:48.575Z,39.78
2019-03-24T01:11:17.234Z,36.05
2019-03-24T01:13:45.902Z,33.28
2019-03-24T01:16:14.563Z,32.63
2019-03-24T01:18:43.226Z,34.08
2019-03-24T01:21:11.881Z,31.20
2019-03-24T01:23:40.545Z,33.65
2019-03-24T01:26:09.283Z,34.35
2019-03-24T01:28:38.003Z,38.58
2019-03-24T01:31:06.669Z,32.98
2019-03-24T01:33:35.399Z,31.60
2019-03-24T01:36:04.140Z,32.65
2019-03-24T01:38:32.790Z,35.13
2019-03-24T01:41:01.518Z,31.27
2019-03-24T01:43:30.251Z,30.08
2019-03-24T01:45:59.101Z,35.23
2019-03-24T01:48:27.736Z,26.70
2019-03-24T01:50:56.427Z,31.50
2019-03-24T01:53:25.086Z,39.03
2019-03-24T01:55:53.741Z,26.37
2019-03-24T01:58:22.408Z,28.20
2019-03-24T02:00:51.237Z,28.00
2019-03-24T02:03:19.898Z,25.60
2019-03-24T02:05:48.561Z,31.35
2019-03-24T02:08:17.222Z,32.28
2019-03-24T02:10:45.869Z,28.00
2019-03-24T02:13:14.542Z,26.10
2019-03-24T02:15:43.189Z,27.73
2019-03-24T02:18:11.849Z,31.07
2019-03-24T02:20:40.569Z,31.95
2019-03-24T02:23:09.307Z,25.35
2019-03-24T02:25:38.050Z,31.10
2019-03-24T02:28:06.875Z,32.05
2019-03-24T02:30:35.532Z,34.73
2019-03-24T02:33:04.207Z,31.52
2019-03-24T02:35:32.880Z,28.05
2019-03-24T02:38:01.550Z,22.50
2019-03-24T02:40:30.204Z,26.97
2019-03-24T02:42:58.843Z,23.42
2019-03-24T02:45:27.517Z,25.68
2019-03-24T02:47:56.165Z,23.60
2019-03-24T02:50:24.848Z,25.20
2019-03-24T02:52:53.507Z,31.60
2019-03-24T02:55:22.204Z,27.10
2019-03-24T02:57:50.853Z,22.27
2019-03-24T03:00:19.647Z,25.30
2019-03-24T03:02:48.386Z,24.47
2019-03-24T03:05:17.292Z,23.10
2019-03-24T03:07:45.954Z,28.15
2019-03-24T03:10:15.051Z,26.10
2019-03-24T03:12:43.719Z,24.70
2019-03-24T03:15:12.521Z,21.73
2019-03-24T03:17:41.341Z,29.15
2019-03-24T03:20:10.422Z,24.63
2019-03-24T03:22:39.145Z,23.52
2019-03-24T03:25:08.742Z,22.25
2019-03-24T03:27:37.465Z,22.55
2019-03-24T03:30:07.474Z,21.62
2019-03-24T03:32:36.289Z,19.35
2019-03-24T03:35:07.469Z,21.57
2019-03-24T03:37:36.181Z,32.45
2019-03-24T03:40:07.801Z,21.37
2019-03-24T03:42:37.114Z,21.60
2019-03-24T03:45:06.133Z,20.55
2019-03-24T03:47:34.777Z,23.00
2019-03-24T03:50:04.419Z,20.90
2019-03-24T03:52:33.071Z,22.27
2019-03-24T03:55:01.714Z,22.10
2019-03-24T03:57:30.385Z,18.42
2019-03-24T03:59:59.030Z,26.30
2019-03-24T04:02:27.711Z,18.87
2019-03-24T04:04:56.433Z,15.18
2019-03-24T04:07:25.769Z,20.12
2019-03-24T04:09:54.494Z,19.25
2019-03-24T04:12:23.163Z,18.67
2019-03-24T04:14:51.824Z,17.65
2019-03-24T04:17:20.568Z,15.55
2019-03-24T04:19:49.211Z,17.48
2019-03-24T04:22:17.909Z,20.65
2019-03-24T04:24:46.555Z,17.87
2019-03-24T04:27:15.211Z,18.15
2019-03-24T04:29:43.874Z,18.27
2019-03-24T04:32:12.531Z,18.23
2019-03-24T04:34:41.203Z,15.68
2019-03-24T04:37:09.856Z,16.85
2019-03-24T04:39:38.510Z,22.58
2019-03-24T04:42:07.159Z,19.48
2019-03-24T04:44:35.828Z,22.65
2019-03-24T04:47:04.545Z,20.00
2019-03-24T04:49:33.206Z,20.12
2019-03-24T04:52:01.854Z,24.90
2019-03-24T04:54:30.518Z,16.85
2019-03-24T04:56:59.241Z,21.93
2019-03-24T04:59:27.922Z,17.87
2019-03-24T05:01:56.659Z,19.05
2019-03-24T05:04:25.309Z,20.23
2019-03-24T05:06:54.643Z,16.05
2019-03-24T05:09:24.114Z,16.50
2019-03-24T05:11:52.833Z,18.07
2019-03-24T05:14:21.442Z,19.62
2019-03-24T05:16:50.101Z,17.37
2019-03-24T05:19:18.757Z,20.45
2019-03-24T05:21:47.413Z,20.57
2019-03-24T05:24:16.065Z,20.12
2019-03-24T05:26:44.792Z,22.25
2019-03-24T05:29:13.455Z,22.98
2019-03-24T05:31:42.185Z,20.72
2019-03-24T05:34:10.934Z,28.02
2019-03-24T05:36:39.577Z,22.98
2019-03-24T05:39:08.254Z,20.77
2019-03-24T05:41:36.892Z,24.15
2019-03-24T05:44:05.633Z,25.00
2019-03-24T05:46:34.280Z,22.20
2019-03-24T05:49:02.954Z,22.70
2019-03-24T05:51:31.980Z,26.12
2019-03-24T05:54:00.635Z,17.75
2019-03-24T05:56:29.288Z,22.70
2019-03-24T05:58:58.030Z,25.23
2019-03-24T06:01:28.258Z,22.80
2019-03-24T06:03:56.973Z,22.60
2019-03-24T06:06:25.744Z,22.75
2019-03-24T06:08:54.396Z,22.95
2019-03-24T06:11:23.202Z,21.25
2019-03-24T06:13:51.856Z,19.82
2019-03-24T06:16:20.512Z,17.05
2019-03-24T06:18:49.181Z,19.42
2019-03-24T06:21:17.838Z,16.12
2019-03-24T06:23:46.503Z,18.02
2019-03-24T06:26:15.200Z,21.27
2019-03-24T06:28:43.840Z,21.80
2019-03-24T06:31:12.569Z,22.27
2019-03-24T06:33:41.228Z,17.73
2019-03-24T06:36:09.967Z,23.07
2019-03-24T06:38:38.632Z,20.77
2019-03-24T06:41:07.377Z,22.55
2019-03-24T06:43:36.142Z,21.68
2019-03-24T06:46:04.946Z,19.32
2019-03-24T06:48:33.610Z,19.17
2019-03-24T06:51:02.302Z,23.15
2019-03-24T06:53:30.957Z,18.42
2019-03-24T06:55:59.798Z,22.98
2019-03-24T06:58:28.489Z,20.25
2019-03-24T07:00:57.216Z,26.23
2019-03-24T07:03:25.902Z,18.82
2019-03-24T07:05:56.084Z,19.27
2019-03-24T07:08:24.798Z,19.73
2019-03-24T07:10:53.726Z,25.30
2019-03-24T07:13:24.088Z,22.77
2019-03-24T07:15:52.743Z,22.07
2019-03-24T07:18:21.470Z,19.98
2019-03-24T07:20:50.613Z,18.02
2019-03-24T07:23:19.281Z,24.40
2019-03-24T07:25:47.926Z,19.37
2019-03-24T07:28:16.674Z,22.17
2019-03-24T07:30:45.563Z,20.92
2019-03-24T07:33:14.313Z,26.10
2019-03-24T07:35:42.963Z,23.30
2019-03-24T07:38:11.621Z,25.50
2019-03-24T07:40:44.296Z,20.52
2019-03-24T07:43:12.957Z,21.27
2019-03-24T07:45:41.637Z,20.57
2019-03-24T07:48:18.645Z,18.07
2019-03-24T07:50:40.754Z,17.48
2019-03-24T07:53:11.118Z,21.90
2019-03-24T07:55:39.910Z,22.37
2019-03-24T07:58:08.727Z,19.15
2019-03-24T08:00:40.801Z,24.32
2019-03-24T08:03:09.488Z,24.25
2019-03-24T08:05:38.223Z,17.20
2019-03-24T08:08:07.106Z,21.75
2019-03-24T08:10:35.818Z,21.30
2019-03-24T08:13:06.891Z,21.15
2019-03-24T08:15:35.590Z,26.60
2019-03-24T08:18:04.358Z,20.43
2019-03-24T08:20:33.070Z,24.43
2019-03-24T08:23:01.839Z,24.27
2019-03-24T08:25:30.506Z,28.60
2019-03-24T08:27:59.155Z,27.15
2019-03-24T08:30:33.275Z,23.90
2019-03-24T08:33:02.150Z,26.65
2019-03-24T08:35:30.850Z,25.27
2019-03-24T08:37:59.651Z,20.48
2019-03-24T08:40:28.465Z,25.35
2019-03-24T08:42:57.130Z,28.67
2019-03-24T08:45:33.311Z,24.37
2019-03-24T08:48:05.169Z,25.15
2019-03-24T08:50:35.437Z,28.07
2019-03-24T08:53:04.436Z,27.80
2019-03-24T08:55:33.182Z,29.50
2019-03-24T08:58:05.324Z,35.20
2019-03-24T09:00:34.029Z,31.35
2019-03-24T09:03:02.695Z,35.38
2019-03-24T09:05:33.566Z,36.65
2019-03-24T09:08:01.675Z,35.92
2019-03-24T09:10:30.329Z,34.08
2019-03-24T09:12:59.002Z,41.13
2019-03-24T09:15:27.803Z,38.85
2019-03-24T09:17:56.473Z,33.58
2019-03-24T09:20:25.511Z,35.30
2019-03-24T09:22:54.237Z,32.17
2019-03-24T09:25:22.929Z,38.65
2019-03-24T09:27:51.547Z,37.05
2019-03-24T09:30:30.882Z,35.52
2019-03-24T09:32:59.724Z,27.67
2019-03-24T09:35:28.404Z,27.65
2019-03-24T09:37:57.279Z,25.77
2019-03-24T09:40:28.743Z,33.02
2019-03-24T09:43:00.546Z,30.35
2019-03-24T09:45:30.520Z,31.87
2019-03-24T09:47:59.679Z,26.90
2019-03-24T09:50:28.672Z,31.70
2019-03-24T09:52:57.879Z,30.52
2019-03-24T09:55:26.735Z,29.63
2019-03-24T09:57:55.623Z,30.92
2019-03-24T10:00:24.238Z,34.98
2019-03-24T10:02:53.047Z,30.92
2019-03-24T10:05:24.597Z,35.98
2019-03-24T10:07:53.390Z,30.45
2019-03-24T10:10:22.193Z,30.77
2019-03-24T10:12:50.889Z,36.48
2019-03-24T10:15:19.883Z,32.70
2019-03-24T10:17:53.434Z,34.53
2019-03-24T10:20:23.827Z,31.87
2019-03-24T10:22:52.499Z,31.00
2019-03-24T10:25:21.185Z,33.53
2019-03-24T10:27:49.833Z,32.03
2019-03-24T10:30:18.638Z,29.32
2019-03-24T10:32:50.129Z,30.43
2019-03-24T10:35:18.931Z,27.42
2019-03-24T10:37:47.600Z,33.18
2019-03-24T10:40:16.493Z,29.63
2019-03-24T10:42:45.233Z,27.50
2019-03-24T10:45:14.125Z,27.22
2019-03-24T10:47:42.874Z,27.30
2019-03-24T10:50:14.246Z,29.82
2019-03-24T10:52:43.000Z,26.23
2019-03-24T10:55:12.310Z,28.60
2019-03-24T10:57:41.108Z,24.15
2019-03-24T11:00:14.606Z,25.62
2019-03-24T11:02:43.282Z,26.15
2019-03-24T11:05:15.231Z,24.15
2019-03-24T11:07:44.121Z,22.67
2019-03-24T11:10:15.801Z,24.77
2019-03-24T11:12:44.474Z,23.12
2019-03-24T11:15:14.955Z,21.40
2019-03-24T11:17:44.379Z,19.25
2019-03-24T11:20:13.450Z,19.87
2019-03-24T11:22:42.448Z,15.13
2019-03-24T11:25:11.463Z,12.15
2019-03-24T11:27:40.270Z,13.10
2019-03-24T11:30:14.600Z,15.75
2019-03-24T11:32:43.477Z,16.07
2019-03-24T11:35:12.590Z,11.73
2019-03-24T11:37:42.294Z,11.75
2019-03-24T11:40:12.949Z,9.10
2019-03-24T11:42:42.371Z,10.43
2019-03-24T11:45:12.862Z,8.33
2019-03-24T11:47:41.610Z,10.23
2019-03-24T11:50:11.265Z,10.58
2019-03-24T11:52:41.601Z,9.45
2019-03-24T11:55:10.851Z,12.10
2019-03-24T11:57:39.623Z,8.95
2019-03-24T12:00:11.733Z,9.95
2019-03-24T12:02:40.546Z,11.90
2019-03-24T12:05:09.532Z,11.53
2019-03-24T12:07:38.370Z,9.95
2019-03-24T12:10:08.253Z,9.90
2019-03-24T12:12:37.083Z,11.78
2019-03-24T12:15:06.769Z,9.43
2019-03-24T12:17:35.426Z,11.95
2019-03-24T12:20:06.630Z,13.22
2019-03-24T12:22:35.353Z,16.32
2019-03-24T12:25:04.954Z,14.70
2019-03-24T12:27:33.750Z,14.40
2019-03-24T12:30:02.430Z,14.25
2019-03-24T12:32:31.223Z,12.65
2019-03-24T12:35:02.943Z,12.07
2019-03-24T12:37:31.581Z,19.55
2019-03-24T12:40:00.414Z,15.03
2019-03-24T12:42:29.061Z,10.05
2019-03-24T12:44:57.727Z,9.83
2019-03-24T12:47:26.391Z,12.40
2019-03-24T12:49:55.074Z,13.35
2019-03-24T12:52:23.702Z,12.65
2019-03-24T12:54:52.365Z,12.58
2019-03-24T12:57:21.018Z,11.57
2019-03-24T12:59:49.682Z,14.33
2019-03-24T13:02:18.334Z,14.80
2019-03-24T13:04:47.063Z,17.87
2019-03-24T13:07:15.849Z,18.30
2019-03-24T13:09:44.459Z,21.82
2019-03-24T13:12:13.229Z,23.52
2019-03-24T13:14:41.959Z,21.95
2019-03-24T13:17:10.830Z,23.45
2019-03-24T13:19:39.574Z,23.98
2019-03-24T13:22:08.338Z,24.02
2019-03-24T13:24:36.997Z,31.73
2019-03-24T13:27:05.877Z,27.90
2019-03-24T13:29:34.596Z,37.67
2019-03-24T13:32:03.327Z,31.27
2019-03-24T13:34:34.844Z,26.73
2019-03-24T13:37:04.315Z,27.40
2019-03-24T13:39:33.112Z,28.55
2019-03-24T13:42:01.997Z,28.30
2019-03-24T13:44:30.750Z,27.32
2019-03-24T13:46:59.411Z,26.57
2019-03-24T13:49:28.088Z,32.17
2019-03-24T13:51:56.766Z,26.50
2019-03-24T13:54:25.406Z,29.65
2019-03-24T13:56:54.147Z,31.73
2019-03-24T13:59:23.004Z,20.95
2019-03-24T14:01:51.745Z,22.75
2019-03-24T14:04:20.465Z,33.35
2019-03-24T14:06:49.151Z,23.55
2019-03-24T14:09:17.944Z,24.80
2019-03-24T14:11:46.725Z,24.32
2019-03-24T14:14:15.429Z,22.65
2019-03-24T14:16:46.511Z,24.98
2019-03-24T14:19:14.723Z,20.43
2019-03-24T14:21:43.388Z,23.50
2019-03-24T14:24:12.031Z,24.65
2019-03-24T14:26:40.757Z,24.12
2019-03-24T14:29:09.412Z,25.75
2019-03-24T14:31:38.070Z,26.40
2019-03-24T14:34:06.788Z,26.35
2019-03-24T14:36:35.528Z,33.80
2019-03-24T14:39:05.315Z,23.57
2019-03-24T14:41:34.157Z,25.20
2019-03-24T14:44:02.881Z,19.57
2019-03-24T14:46:31.538Z,20.75
2019-03-24T14:49:00.280Z,20.57
2019-03-24T14:51:28.992Z,22.98
2019-03-24T14:53:57.726Z,20.25
2019-03-24T14:56:26.559Z,23.05
2019-03-24T14:58:55.383Z,16.48
2019-03-24T15:01:24.053Z,18.23
2019-03-24T15:03:52.850Z,15.63
2019-03-24T15:06:21.636Z,16.40
2019-03-24T15:08:50.405Z,14.75
2019-03-24T15:11:19.146Z,15.28
2019-03-24T15:13:47.871Z,15.25
2019-03-24T15:16:16.532Z,17.12
2019-03-24T15:18:45.290Z,16.02
2019-03-24T15:21:13.932Z,18.20
2019-03-24T15:23:42.582Z,16.52
2019-03-24T15:26:11.254Z,16.45
2019-03-24T15:28:39.902Z,18.25
2019-03-24T15:31:08.690Z,13.98
2019-03-24T15:33:37.450Z,17.35
2019-03-24T15:36:06.191Z,16.50
2019-03-24T15:38:34.906Z,17.45
2019-03-24T15:41:06.231Z,15.88
2019-03-24T15:43:34.882Z,13.32
2019-03-24T15:46:03.755Z,14.68
2019-03-24T15:48:32.413Z,14.90
2019-03-24T15:51:01.079Z,20.23
2019-03-24T15:53:29.756Z,14.35
2019-03-24T15:55:58.409Z,22.07
2019-03-24T15:58:27.147Z,18.00
2019-03-24T16:00:55.871Z,16.75
2019-03-24T16:03:24.623Z,19.25
2019-03-24T16:05:53.396Z,15.83
2019-03-24T16:08:22.044Z,19.70
2019-03-24T16:10:50.769Z,18.75
2019-03-24T16:13:19.597Z,22.58
2019-03-24T16:15:48.258Z,17.98
2019-03-24T16:18:17.076Z,20.37
2019-03-24T16:20:45.724Z,22.30
2019-03-24T16:23:14.535Z,19.62
2019-03-24T16:25:43.433Z,19.87
2019-03-24T16:28:12.197Z,28.67
2019-03-24T16:30:40.862Z,21.15
2019-03-24T16:33:09.612Z,19.25
2019-03-24T16:35:38.452Z,24.77
2019-03-24T16:38:07.096Z,21.35
2019-03-24T16:40:35.763Z,25.02
2019-03-24T16:43:04.491Z,27.02
2019-03-24T16:45:33.224Z,23.02
2019-03-24T16:48:01.953Z,31.20
2019-03-24T16:50:30.696Z,25.48
2019-03-24T16:52:59.355Z,26.80
2019-03-24T16:55:28.012Z,30.80
2019-03-24T16:57:56.751Z,22.65
2019-03-24T17:00:25.402Z,28.95
2019-03-24T17:02:54.144Z,25.17
2019-03-24T17:05:22.934Z,29.52
2019-03-24T17:07:51.707Z,27.58
2019-03-24T17:10:20.452Z,27.73
2019-03-24T17:12:52.164Z,29.72
2019-03-24T17:15:23.919Z,32.17
2019-03-24T17:17:52.781Z,27.48
2019-03-24T17:20:21.522Z,30.00
2019-03-24T17:22:50.330Z,28.30
2019-03-24T17:25:19.185Z,23.67
2019-03-24T17:27:52.174Z,27.52
2019-03-24T17:30:25.274Z,26.50
2019-03-24T17:32:54.052Z,27.80
2019-03-24T17:35:23.022Z,25.55
2019-03-24T17:37:51.822Z,29.87
2019-03-24T17:40:20.597Z,38.55
2019-03-24T17:42:49.575Z,34.73
2019-03-24T17:45:18.430Z,34.20
2019-03-24T17:47:47.336Z,32.13
2019-03-24T17:50:18.073Z,44.88
2019-03-24T17:52:46.816Z,32.98
2019-03-24T17:55:26.895Z,35.25
2019-03-24T17:57:46.474Z,39.35
2019-03-24T18:00:18.960Z,46.08
2019-03-24T18:02:47.770Z,41.88
2019-03-24T18:05:16.685Z,35.43
2019-03-24T18:07:45.521Z,35.95
2019-03-24T18:10:14.790Z,41.08
2019-03-24T18:12:43.680Z,36.95
2019-03-24T18:15:14.558Z,37.85
2019-03-24T18:17:48.538Z,43.15
2019-03-24T18:20:20.277Z,43.78
2019-03-24T18:25:30.484Z,39.20
2019-03-24T18:27:59.544Z,39.45
2019-03-24T18:30:28.528Z,36.45
2019-03-24T18:32:57.292Z,35.17
2019-03-24T18:35:26.223Z,42.88
2019-03-24T18:38:02.380Z,40.92
2019-03-24T18:40:28.473Z,39.78
2019-03-24T18:43:04.351Z,38.10
2019-03-24T18:45:33.328Z,41.10
2019-03-24T18:48:03.863Z,45.12
2019-03-24T18:50:34.111Z,52.23
2019-03-24T18:53:02.778Z,51.75
2019-03-24T18:55:31.645Z,48.42
2019-03-24T18:58:00.415Z,49.23
2019-03-24T19:00:30.674Z,57.17
2019-03-24T19:03:02.176Z,53.33
2019-03-24T19:05:31.118Z,51.85
2019-03-24T19:08:00.267Z,61.92
2019-03-24T19:10:29.189Z,49.42
2019-03-24T19:12:58.019Z,51.88
2019-03-24T19:15:26.859Z,48.08
2019-03-24T19:17:55.618Z,49.83
2019-03-24T19:20:24.265Z,58.95
2019-03-24T19:22:52.992Z,52.95
2019-03-24T19:25:21.758Z,63.10
2019-03-24T19:27:50.605Z,51.10
2019-03-24T19:30:22.289Z,47.53
2019-03-24T19:32:51.311Z,48.33
2019-03-24T19:35:20.137Z,48.45
2019-03-24T19:37:49.481Z,47.85
2019-03-24T19:40:31.938Z,53.87
2019-03-24T19:43:00.742Z,61.08
2019-03-24T19:45:29.502Z,52.55
2019-03-24T19:47:58.397Z,60.40
2019-03-24T19:50:27.215Z,50.48
2019-03-24T19:52:55.890Z,54.10
2019-03-24T19:55:24.569Z,55.25
2019-03-24T19:57:53.281Z,51.42
2019-03-24T20:00:22.019Z,53.80
2019-03-24T20:02:50.742Z,50.43
2019-03-24T20:05:19.480Z,52.20
2019-03-24T20:07:48.574Z,56.05
2019-03-24T20:10:17.278Z,48.33
2019-03-24T20:12:46.859Z,51.30
2019-03-24T20:15:15.642Z,47.05
2019-03-24T20:17:44.358Z,47.05
2019-03-24T20:20:13.202Z,50.80
2019-03-24T20:22:42.501Z,57.38
2019-03-24T20:25:11.844Z,56.48
2019-03-24T20:27:41.331Z,55.92
2019-03-24T20:30:14.387Z,52.27
2019-03-24T20:32:43.136Z,56.75
2019-03-24T20:35:13.323Z,58.48
2019-03-24T20:37:42.065Z,57.65
2019-03-24T20:40:11.055Z,60.90
2019-03-24T20:42:39.763Z,64.00
2019-03-24T20:45:09.770Z,55.80
2019-03-24T20:47:38.469Z,55.33
2019-03-24T20:50:07.970Z,65.72
2019-03-24T20:52:36.699Z,63.87
2019-03-24T20:55:08.636Z,57.58
2019-03-24T20:57:38.602Z,59.20
2019-03-24T21:00:08.044Z,64.03
2019-03-24T21:02:36.769Z,61.20
2019-03-24T21:05:06.680Z,62.20
2019-03-24T21:07:35.401Z,61.95
2019-03-24T21:10:07.539Z,61.58
2019-03-24T21:12:36.326Z,60.92
2019-03-24T21:15:07.666Z,60.92
2019-03-24T21:17:38.442Z,65.83
2019-03-24T21:20:10.575Z,70.92
2019-03-24T21:22:39.462Z,63.20
2019-03-24T21:25:08.776Z,64.58
2019-03-24T21:27:37.504Z,64.12
2019-03-24T21:30:07.871Z,64.53
2019-03-24T21:32:36.550Z,56.55
2019-03-24T21:35:06.964Z,58.40
2019-03-24T21:37:35.703Z,62.17
2019-03-24T21:40:08.313Z,66.05
2019-03-24T21:42:36.791Z,64.35
2019-03-24T21:45:09.702Z,64.95
2019-03-24T21:47:38.432Z,63.68
2019-03-24T21:50:08.038Z,61.10
2019-03-24T21:52:36.710Z,64.67
2019-03-24T21:55:06.427Z,59.18
2019-03-24T21:57:35.109Z,64.05
2019-03-24T22:00:06.019Z,59.60
2019-03-24T22:02:34.677Z,63.33
2019-03-24T22:05:03.900Z,71.28
2019-03-24T22:07:32.682Z,59.03
2019-03-24T22:10:02.401Z,56.98
2019-03-24T22:12:31.609Z,65.95
2019-03-24T22:15:00.326Z,64.97
2019-03-24T22:17:29.070Z,64.05
2019-03-24T22:19:58.597Z,56.18
2019-03-24T22:22:27.254Z,58.90
2019-03-24T22:24:55.922Z,60.33
2019-03-24T22:27:24.590Z,57.20
2019-03-24T22:29:53.256Z,60.05
2019-03-24T22:32:21.972Z,63.87
2019-03-24T22:34:50.649Z,69.35
2019-03-24T22:37:19.421Z,67.32
2019-03-24T22:39:48.263Z,61.53
2019-03-24T22:42:16.917Z,60.48
2019-03-24T22:44:45.586Z,63.83
2019-03-24T22:47:14.321Z,59.48
2019-03-24T22:49:43.037Z,57.85
2019-03-24T22:52:11.642Z,62.45
2019-03-24T22:54:40.340Z,71.22
2019-03-24T22:57:08.995Z,76.55
2019-03-24T22:59:42.009Z,58.85
2019-03-24T23:02:08.094Z,58.28
2019-03-24T23:04:36.755Z,62.30
2019-03-24T23:07:05.469Z,57.70
2019-03-24T23:09:34.123Z,61.75
2019-03-24T23:12:02.782Z,66.05
2019-03-24T23:14:31.429Z,57.67
2019-03-24T23:17:00.114Z,60.52
2019-03-24T23:19:28.762Z,63.02
2019-03-24T23:21:57.431Z,57.58
2019-03-24T23:24:26.078Z,63.78
2019-03-24T23:26:54.846Z,63.63
2019-03-24T23:29:23.501Z,62.30
2019-03-24T23:31:52.152Z,62.15
2019-03-24T23:34:20.820Z,61.13
2019-03-24T23:36:49.461Z,58.42
2019-03-24T23:39:18.132Z,63.45
2019-03-24T23:41:46.781Z,61.45
2019-03-24T23:44:15.438Z,65.75
2019-03-24T23:46:44.164Z,52.62
2019-03-24T23:49:12.858Z,57.90
2019-03-24T23:51:41.515Z,56.42
2019-03-24T23:54:10.161Z,61.13
2019-03-24T23:56:38.842Z,55.92
2019-03-24T23:59:07.486Z,49.85
